createdAt,value
2023-06-03T00:00:51.556Z,4.80
2023-06-03T00:03:40.528Z,4.30
2023-06-03T00:06:08.892Z,4.00
2023-06-03T00:08:36.861Z,3.90
2023-06-03T00:11:05.228Z,4.40
2023-06-03T00:13:33.538Z,3.90
2023-06-03T00:16:01.693Z,3.50
2023-06-03T00:18:29.770Z,4.20
2023-06-03T00:20:57.771Z,4.10
2023-06-03T00:23:26.562Z,3.60
2023-06-03T00:25:54.984Z,4.20
2023-06-03T00:28:22.913Z,3.90
2023-06-03T00:30:52.127Z,3.80
2023-06-03T00:33:21.296Z,4.10
2023-06-03T00:35:49.409Z,3.90
2023-06-03T00:38:18.025Z,3.60
2023-06-03T00:40:47.414Z,3.90
2023-06-03T00:43:15.717Z,4.10
2023-06-03T00:45:44.148Z,3.70
2023-06-03T00:48:13.513Z,3.50
2023-06-03T00:50:42.379Z,4.00
2023-06-03T00:53:10.761Z,3.10
2023-06-03T00:55:38.936Z,3.80
2023-06-03T00:58:07.927Z,4.20
2023-06-03T01:00:36.251Z,3.80
2023-06-03T01:03:04.647Z,3.90
2023-06-03T01:05:32.926Z,3.60
2023-06-03T01:08:28.036Z,3.90
2023-06-03T01:11:22.230Z,3.30
2023-06-03T01:14:03.396Z,3.90
2023-06-03T01:16:32.349Z,3.80
2023-06-03T01:19:02.577Z,3.40
2023-06-03T01:21:35.726Z,3.30
2023-06-03T01:24:04.474Z,3.70
2023-06-03T01:26:32.565Z,3.90
2023-06-03T01:29:00.932Z,3.80
2023-06-03T01:31:28.873Z,4.50
2023-06-03T01:33:57.615Z,4.60
2023-06-03T01:36:25.669Z,3.90
2023-06-03T01:38:55.388Z,3.30
2023-06-03T01:41:24.275Z,3.70
2023-06-03T01:43:52.279Z,3.70
2023-06-03T01:46:21.109Z,3.80
2023-06-03T01:48:49.092Z,3.70
2023-06-03T01:51:17.047Z,3.50
2023-06-03T01:53:45.063Z,3.20
2023-06-03T01:56:13.098Z,3.70
2023-06-03T01:58:41.479Z,3.50
2023-06-03T02:01:09.775Z,3.60
2023-06-03T02:03:37.951Z,3.60
2023-06-03T02:06:06.994Z,3.40
2023-06-03T02:08:37.454Z,4.00
2023-06-03T02:11:05.920Z,3.60
2023-06-03T02:13:33.934Z,4.00
2023-06-03T02:16:01.987Z,3.80
2023-06-03T02:18:30.973Z,3.90
2023-06-03T02:20:59.098Z,3.70
2023-06-03T02:23:28.582Z,3.40
2023-06-03T02:25:57.510Z,3.60
2023-06-03T02:28:27.610Z,4.10
2023-06-03T02:30:55.644Z,4.10
2023-06-03T02:33:24.384Z,3.80
2023-06-03T02:35:52.331Z,3.90
2023-06-03T02:38:21.453Z,3.40
2023-06-03T02:40:49.551Z,3.20
2023-06-03T02:43:18.076Z,3.40
2023-06-03T02:45:46.381Z,3.80
2023-06-03T02:48:15.064Z,4.10
2023-06-03T02:50:43.039Z,3.90
2023-06-03T02:53:12.624Z,3.70
2023-06-03T02:55:40.816Z,3.60
2023-06-03T02:58:08.767Z,3.30
2023-06-03T03:00:36.790Z,4.00
2023-06-03T03:03:05.288Z,3.60
2023-06-03T03:05:35.367Z,3.50
2023-06-03T03:08:05.085Z,3.00
2023-06-03T03:10:33.096Z,4.00
2023-06-03T03:13:02.052Z,4.00
2023-06-03T03:15:30.140Z,3.70
2023-06-03T03:17:58.346Z,3.60
2023-06-03T03:20:26.785Z,3.80
2023-06-03T03:22:55.716Z,3.20
2023-06-03T03:25:25.238Z,4.20
2023-06-03T03:27:53.508Z,3.90
2023-06-03T03:30:21.751Z,4.10
2023-06-03T03:32:49.861Z,4.00
2023-06-03T03:35:22.538Z,3.90
2023-06-03T03:38:03.449Z,4.30
2023-06-03T03:40:34.274Z,4.30
2023-06-03T03:43:04.389Z,4.40
2023-06-03T03:45:37.637Z,3.90
2023-06-03T03:48:09.439Z,4.20
2023-06-03T03:50:44.987Z,3.60
2023-06-03T03:53:19.948Z,3.70
2023-06-03T03:55:50.989Z,4.00
2023-06-03T04:01:03.022Z,3.70
2023-06-03T04:03:37.195Z,3.80
2023-06-03T04:06:05.930Z,4.00
2023-06-03T04:08:39.992Z,4.40
2023-06-03T04:11:10.739Z,3.70
2023-06-03T04:13:41.736Z,4.00
2023-06-03T04:16:18.921Z,3.90
2023-06-03T04:18:47.050Z,4.30
2023-06-03T04:21:20.297Z,3.50
2023-06-03T04:23:48.553Z,4.30
2023-06-03T04:26:17.332Z,4.30
2023-06-03T04:28:46.030Z,3.70
2023-06-03T04:31:16.098Z,3.30
2023-06-03T04:33:44.431Z,4.10
2023-06-03T04:36:13.218Z,4.50
2023-06-03T04:38:42.545Z,4.60
2023-06-03T04:41:15.513Z,4.80
2023-06-03T04:43:49.086Z,4.60
2023-06-03T04:46:17.525Z,5.20
2023-06-03T04:48:46.796Z,5.00
2023-06-03T04:51:15.672Z,4.50
2023-06-03T04:53:44.195Z,4.90
2023-06-03T04:56:14.209Z,4.70
2023-06-03T04:58:43.361Z,4.20
2023-06-03T05:01:14.423Z,3.60
2023-06-03T05:03:45.840Z,4.00
2023-06-03T05:06:14.314Z,3.40
2023-06-03T05:08:43.934Z,3.50
2023-06-03T05:11:12.345Z,3.80
2023-06-03T05:13:41.601Z,4.00
2023-06-03T05:16:10.124Z,3.70
2023-06-03T05:18:40.296Z,4.00
2023-06-03T05:21:09.017Z,4.20
2023-06-03T05:23:37.075Z,3.80
2023-06-03T05:26:06.193Z,4.40
2023-06-03T05:28:34.234Z,4.60
2023-06-03T05:31:02.175Z,4.30
2023-06-03T05:33:32.937Z,4.70
2023-06-03T05:36:14.684Z,4.50
2023-06-03T05:38:43.827Z,4.00
2023-06-03T05:41:13.088Z,4.40
2023-06-03T05:43:41.432Z,4.20
2023-06-03T05:46:10.530Z,4.50
2023-06-03T05:48:38.693Z,4.20
2023-06-03T05:51:07.309Z,4.40
2023-06-03T05:53:36.242Z,4.10
2023-06-03T05:56:31.932Z,3.90
2023-06-03T05:59:00.631Z,4.20
2023-06-03T06:01:31.811Z,4.30
2023-06-03T06:04:01.408Z,3.90
2023-06-03T06:06:29.795Z,4.10
2023-06-03T06:08:58.267Z,3.90
2023-06-03T06:11:28.079Z,3.90
2023-06-03T06:13:56.551Z,4.00
2023-06-03T06:16:24.947Z,3.80
2023-06-03T06:18:53.484Z,4.70
2023-06-03T06:21:21.747Z,4.30
2023-06-03T06:23:50.029Z,3.50
2023-06-03T06:26:18.142Z,4.00
2023-06-03T06:28:47.144Z,3.70
2023-06-03T06:31:17.712Z,4.40
2023-06-03T06:33:50.140Z,3.70
2023-06-03T06:36:34.270Z,4.30
2023-06-03T06:39:37.130Z,4.00
2023-06-03T06:42:13.747Z,3.60
2023-06-03T06:44:50.855Z,4.00
2023-06-03T06:47:24.348Z,3.50
2023-06-03T06:49:57.711Z,3.40
2023-06-03T06:52:27.806Z,3.60
2023-06-03T06:54:56.750Z,4.70
2023-06-03T06:57:26.301Z,4.60
2023-06-03T06:59:55.181Z,4.30
2023-06-03T07:02:23.870Z,3.70
2023-06-03T07:04:52.638Z,4.10
2023-06-03T07:07:21.830Z,6.50
2023-06-03T07:09:50.198Z,5.10
2023-06-03T07:12:18.553Z,3.80
2023-06-03T07:14:46.907Z,3.60
2023-06-03T07:17:16.044Z,4.80
2023-06-03T07:19:43.976Z,3.80
2023-06-03T07:22:12.873Z,3.90
2023-06-03T07:24:42.267Z,4.20
2023-06-03T07:27:22.022Z,3.60
2023-06-03T07:29:49.982Z,4.20
2023-06-03T07:32:22.914Z,3.80
2023-06-03T07:34:51.153Z,3.80
2023-06-03T07:37:19.133Z,3.80
2023-06-03T07:39:47.621Z,3.80
2023-06-03T07:42:29.015Z,4.30
2023-06-03T07:45:06.277Z,5.20
2023-06-03T07:47:34.603Z,4.30
2023-06-03T07:50:04.051Z,4.10
2023-06-03T07:52:38.431Z,4.00
2023-06-03T07:55:09.205Z,4.40
2023-06-03T07:57:43.805Z,4.20
2023-06-03T08:00:16.425Z,4.80
2023-06-03T08:02:46.040Z,4.30
2023-06-03T08:05:16.146Z,3.80
2023-06-03T08:07:45.096Z,4.10
2023-06-03T08:10:23.643Z,4.00
2023-06-03T08:12:51.988Z,3.90
2023-06-03T08:15:28.668Z,3.90
2023-06-03T08:17:57.382Z,3.60
2023-06-03T08:20:27.630Z,3.70
2023-06-03T08:22:57.211Z,4.00
2023-06-03T08:25:25.652Z,4.10
2023-06-03T08:27:53.660Z,3.70
2023-06-03T08:30:22.811Z,3.30
2023-06-03T08:32:52.457Z,4.00
2023-06-03T08:35:22.448Z,4.40
2023-06-03T08:37:51.109Z,3.80
2023-06-03T08:40:19.410Z,3.60
2023-06-03T08:42:49.948Z,3.50
2023-06-03T08:45:22.971Z,3.50
2023-06-03T08:48:09.952Z,3.90
2023-06-03T08:50:38.135Z,3.50
2023-06-03T08:53:10.499Z,4.20
2023-06-03T08:55:40.383Z,4.10
2023-06-03T08:58:26.904Z,3.90
2023-06-03T09:01:02.480Z,3.50
2023-06-03T09:03:31.358Z,4.10
2023-06-03T09:06:01.745Z,3.50
2023-06-03T09:08:32.391Z,4.60
2023-06-03T09:11:01.076Z,4.50
2023-06-03T09:13:31.747Z,3.70
2023-06-03T09:16:00.455Z,4.50
2023-06-03T09:18:29.122Z,4.10
2023-06-03T09:20:57.914Z,3.80
2023-06-03T09:23:29.104Z,3.70
2023-06-03T09:25:57.220Z,4.10
2023-06-03T09:28:25.190Z,4.00
2023-06-03T09:30:54.376Z,4.30
2023-06-03T09:33:23.434Z,4.00
2023-06-03T09:36:14.624Z,3.60
2023-06-03T09:38:51.535Z,3.90
2023-06-03T09:41:22.588Z,3.80
2023-06-03T09:44:03.585Z,4.60
2023-06-03T09:46:35.216Z,4.30
2023-06-03T09:49:20.471Z,4.10
2023-06-03T09:51:53.114Z,3.80
2023-06-03T09:54:27.010Z,3.90
2023-06-03T09:56:55.084Z,3.80
2023-06-03T09:59:26.487Z,3.60
2023-06-03T10:01:56.954Z,4.00
2023-06-03T10:04:45.498Z,4.10
2023-06-03T10:07:16.198Z,4.00
2023-06-03T10:09:48.699Z,4.00
2023-06-03T10:12:29.417Z,4.30
2023-06-03T10:15:01.183Z,4.10
2023-06-03T10:17:29.712Z,4.10
2023-06-03T10:19:57.739Z,4.20
2023-06-03T10:22:27.386Z,4.50
2023-06-03T10:24:57.886Z,4.20
2023-06-03T10:27:28.348Z,3.80
2023-06-03T10:29:58.525Z,3.90
2023-06-03T10:32:27.599Z,4.20
2023-06-03T10:35:00.628Z,3.90
2023-06-03T10:37:30.494Z,4.00
2023-06-03T10:40:01.177Z,3.90
2023-06-03T10:42:30.394Z,3.90
2023-06-03T10:44:58.581Z,3.70
2023-06-03T10:47:29.814Z,3.90
2023-06-03T10:50:25.533Z,4.20
2023-06-03T10:52:53.463Z,3.60
2023-06-03T10:56:00.577Z,4.20
2023-06-03T10:58:30.138Z,3.80
2023-06-03T11:01:07.539Z,4.60
2023-06-03T11:04:04.011Z,3.90
2023-06-03T11:06:32.254Z,4.10
2023-06-03T11:09:06.877Z,4.00
2023-06-03T11:11:41.660Z,3.70
2023-06-03T11:14:35.330Z,3.80
2023-06-03T11:17:03.288Z,3.80
2023-06-03T11:19:33.248Z,3.90
2023-06-03T11:22:08.894Z,4.80
2023-06-03T11:24:40.349Z,3.80
2023-06-03T11:27:14.363Z,3.80
2023-06-03T11:29:46.034Z,4.10
2023-06-03T11:32:18.193Z,3.90
2023-06-03T11:34:48.010Z,4.20
2023-06-03T11:37:18.976Z,4.60
2023-06-03T11:40:08.734Z,4.80
2023-06-03T11:42:46.825Z,4.50
2023-06-03T11:45:28.298Z,4.30
2023-06-03T11:50:32.097Z,4.10
2023-06-03T11:55:33.959Z,4.70
2023-06-03T11:58:10.054Z,4.40
2023-06-03T12:00:39.356Z,4.50
2023-06-03T12:03:15.869Z,4.90
2023-06-03T12:05:54.367Z,4.40
2023-06-03T12:08:22.561Z,5.10
2023-06-03T12:10:50.878Z,4.30
2023-06-03T12:13:18.883Z,4.80
2023-06-03T12:15:50.358Z,4.40
2023-06-03T12:20:49.236Z,4.80
2023-06-03T12:23:25.592Z,4.80
2023-06-03T12:25:57.005Z,4.70
2023-06-03T12:28:28.970Z,5.00
2023-06-03T12:30:57.652Z,4.80
2023-06-03T12:33:39.829Z,4.40
2023-06-03T12:36:08.542Z,4.20
2023-06-03T12:38:55.623Z,4.10
2023-06-03T12:41:24.140Z,3.80
2023-06-03T12:44:00.818Z,4.10
2023-06-03T12:46:30.031Z,3.90
2023-06-03T12:49:13.809Z,3.50
2023-06-03T12:51:42.001Z,3.50
2023-06-03T12:54:10.709Z,3.60
2023-06-03T12:56:38.791Z,3.70
2023-06-03T12:59:08.436Z,4.00
2023-06-03T13:01:37.109Z,3.80
2023-06-03T13:04:05.299Z,3.60
2023-06-03T13:06:33.741Z,3.60
2023-06-03T13:09:01.642Z,3.70
2023-06-03T13:11:29.858Z,3.90
2023-06-03T13:13:58.034Z,3.70
2023-06-03T13:16:26.100Z,3.70
2023-06-03T13:18:54.160Z,3.10
2023-06-03T13:21:22.150Z,3.40
2023-06-03T13:23:50.190Z,3.80
2023-06-03T13:26:18.526Z,4.10
2023-06-03T13:28:46.910Z,3.40
2023-06-03T13:31:15.297Z,3.10
2023-06-03T13:33:43.432Z,3.50
2023-06-03T13:36:11.356Z,3.30
2023-06-03T13:38:39.396Z,3.30
2023-06-03T13:41:09.495Z,3.00
2023-06-03T13:43:38.314Z,3.40
2023-06-03T13:46:06.517Z,4.70
2023-06-03T13:48:34.693Z,5.00
2023-06-03T13:51:02.833Z,5.10
2023-06-03T13:53:32.672Z,3.50
2023-06-03T13:56:00.850Z,3.90
2023-06-03T13:58:29.062Z,3.60
2023-06-03T14:00:57.186Z,4.50
2023-06-03T14:03:25.079Z,6.90
2023-06-03T14:05:53.175Z,5.60
2023-06-03T14:08:21.743Z,5.30
2023-06-03T14:10:50.046Z,4.10
2023-06-03T14:13:18.404Z,3.40
2023-06-03T14:15:46.826Z,3.00
2023-06-03T14:18:16.965Z,2.70
2023-06-03T14:20:45.261Z,3.10
2023-06-03T14:23:14.505Z,3.00
2023-06-03T14:25:42.837Z,3.00
2023-06-03T14:28:11.054Z,3.20
2023-06-03T14:30:57.110Z,3.10
2023-06-03T14:33:27.273Z,3.00
2023-06-03T14:35:56.001Z,3.00
2023-06-03T14:38:25.444Z,2.70
2023-06-03T14:40:53.706Z,3.10
2023-06-03T14:43:21.769Z,3.00
2023-06-03T14:45:49.997Z,2.80
2023-06-03T14:48:18.056Z,2.70
2023-06-03T14:50:46.235Z,2.80
2023-06-03T14:53:14.382Z,3.30
2023-06-03T14:55:45.093Z,3.70
2023-06-03T14:58:13.068Z,2.80
2023-06-03T15:00:41.141Z,2.60
2023-06-03T15:03:09.368Z,3.00
2023-06-03T15:05:37.416Z,3.00
2023-06-03T15:08:05.730Z,2.90
2023-06-03T15:10:35.233Z,2.60
2023-06-03T15:13:03.853Z,2.60
2023-06-03T15:15:31.955Z,3.10
2023-06-03T15:18:00.391Z,3.00
2023-06-03T15:20:28.452Z,2.80
2023-06-03T15:22:56.710Z,3.00
2023-06-03T15:25:24.805Z,2.80
2023-06-03T15:27:53.618Z,2.90
2023-06-03T15:30:23.036Z,2.90
2023-06-03T15:32:51.356Z,2.90
2023-06-03T15:35:21.784Z,3.30
2023-06-03T15:37:49.850Z,3.10
2023-06-03T15:40:17.934Z,2.90
2023-06-03T15:42:46.495Z,3.30
2023-06-03T15:45:14.401Z,3.50
2023-06-03T15:47:42.324Z,3.20
2023-06-03T15:50:11.607Z,3.40
2023-06-03T15:52:39.599Z,3.50
2023-06-03T15:55:08.520Z,3.40
2023-06-03T15:57:36.681Z,3.40
2023-06-03T16:00:05.589Z,3.00
2023-06-03T16:02:34.180Z,2.80
2023-06-03T16:05:02.649Z,3.40
2023-06-03T16:07:32.740Z,3.90
2023-06-03T16:10:01.496Z,3.90
2023-06-03T16:12:29.834Z,4.20
2023-06-03T16:14:58.083Z,3.00
2023-06-03T16:17:26.515Z,3.80
2023-06-03T16:19:54.681Z,3.80
2023-06-03T16:22:22.810Z,3.30
2023-06-03T16:24:51.306Z,3.40
2023-06-03T16:27:19.569Z,3.20
2023-06-03T16:29:47.571Z,3.10
2023-06-03T16:32:16.323Z,3.30
2023-06-03T16:34:44.598Z,2.90
2023-06-03T16:37:13.079Z,2.20
2023-06-03T16:39:41.766Z,2.80
2023-06-03T16:42:10.240Z,2.50
2023-06-03T16:44:38.338Z,3.10
2023-06-03T16:47:06.473Z,3.30
2023-06-03T16:49:34.675Z,3.20
2023-06-03T16:52:02.999Z,3.10
2023-06-03T16:54:31.125Z,3.40
2023-06-03T16:56:59.177Z,3.90
2023-06-03T16:59:27.097Z,2.50
2023-06-03T17:01:55.494Z,2.90
2023-06-03T17:04:23.792Z,2.40
2023-06-03T17:06:51.989Z,2.50
2023-06-03T17:09:21.082Z,2.70
2023-06-03T17:11:51.143Z,2.60
2023-06-03T17:14:19.172Z,3.30
2023-06-03T17:16:47.476Z,3.30
2023-06-03T17:19:15.949Z,3.30
2023-06-03T17:21:44.121Z,3.40
2023-06-03T17:24:12.275Z,3.50
2023-06-03T17:26:40.349Z,3.00
2023-06-03T17:29:08.620Z,2.80
2023-06-03T17:31:36.891Z,3.00
2023-06-03T17:34:05.228Z,2.80
2023-06-03T17:36:33.462Z,2.30
2023-06-03T17:39:01.647Z,2.80
2023-06-03T17:41:29.804Z,3.80
2023-06-03T17:43:58.308Z,3.30
2023-06-03T17:46:26.184Z,3.10
2023-06-03T17:48:54.610Z,2.60
2023-06-03T17:51:22.751Z,3.40
2023-06-03T17:53:53.970Z,2.70
2023-06-03T17:56:48.320Z,2.80
2023-06-03T17:59:16.482Z,2.60
2023-06-03T18:01:44.479Z,2.90
2023-06-03T18:04:13.692Z,3.20
2023-06-03T18:06:41.788Z,3.00
2023-06-03T18:09:09.887Z,2.80
2023-06-03T18:11:37.884Z,2.70
2023-06-03T18:14:05.836Z,2.90
2023-06-03T18:16:34.163Z,5.00
2023-06-03T18:19:02.296Z,3.00
2023-06-03T18:21:31.195Z,2.40
2023-06-03T18:23:59.242Z,2.40
2023-06-03T18:26:29.058Z,2.30
2023-06-03T18:28:57.359Z,2.10
2023-06-03T18:31:25.741Z,2.20
2023-06-03T18:33:53.848Z,2.50
2023-06-03T18:36:22.049Z,2.60
2023-06-03T18:38:49.966Z,2.80
2023-06-03T18:41:18.225Z,2.80
2023-06-03T18:43:46.209Z,2.70
2023-06-03T18:46:14.406Z,2.80
2023-06-03T18:48:42.656Z,2.40
2023-06-03T18:51:10.804Z,2.40
2023-06-03T18:53:38.778Z,2.30
2023-06-03T18:56:07.276Z,2.30
2023-06-03T18:58:35.528Z,2.20
2023-06-03T19:01:03.730Z,2.20
2023-06-03T19:03:32.645Z,2.40
2023-06-03T19:06:00.926Z,2.10
2023-06-03T19:08:28.892Z,2.80
2023-06-03T19:10:56.981Z,2.10
2023-06-03T19:13:25.036Z,2.00
2023-06-03T19:15:53.764Z,1.80
2023-06-03T19:18:22.108Z,2.20
2023-06-03T19:20:50.683Z,2.20
2023-06-03T19:23:19.181Z,2.20
2023-06-03T19:25:47.337Z,2.30
2023-06-03T19:28:15.341Z,2.80
2023-06-03T19:30:44.445Z,2.40
2023-06-03T19:33:16.189Z,3.10
2023-06-03T19:35:44.787Z,2.60
2023-06-03T19:38:12.724Z,2.70
2023-06-03T19:40:40.756Z,3.00
2023-06-03T19:43:09.371Z,2.50
2023-06-03T19:45:37.417Z,3.20
2023-06-03T19:48:06.412Z,2.70
2023-06-03T19:50:34.718Z,2.90
2023-06-03T19:53:03.215Z,3.00
2023-06-03T19:55:31.375Z,2.90
2023-06-03T19:57:59.602Z,3.10
2023-06-03T20:00:27.581Z,3.10
2023-06-03T20:02:55.825Z,2.80
2023-06-03T20:05:24.266Z,3.20
2023-06-03T20:07:52.354Z,3.00
2023-06-03T20:10:21.313Z,2.90
2023-06-03T20:12:49.294Z,3.10
2023-06-03T20:15:17.279Z,2.80
2023-06-03T20:17:46.243Z,2.70
2023-06-03T20:20:17.723Z,2.50
2023-06-03T20:22:46.001Z,2.80
2023-06-03T20:25:13.993Z,2.80
2023-06-03T20:27:41.885Z,2.80
2023-06-03T20:30:10.523Z,2.90
2023-06-03T20:32:38.519Z,3.50
2023-06-03T20:35:07.602Z,3.90
2023-06-03T20:37:35.916Z,3.60
2023-06-03T20:40:05.256Z,3.10
2023-06-03T20:42:33.318Z,3.40
2023-06-03T20:45:01.571Z,2.90
2023-06-03T20:47:29.681Z,3.00
2023-06-03T20:49:57.705Z,2.80
2023-06-03T20:52:25.658Z,2.50
2023-06-03T20:54:54.048Z,3.00
2023-06-03T20:57:22.540Z,3.50
2023-06-03T20:59:50.450Z,3.90
2023-06-03T21:02:18.513Z,3.40
2023-06-03T21:04:46.554Z,3.30
2023-06-03T21:07:14.572Z,3.60
2023-06-03T21:09:42.759Z,3.90
2023-06-03T21:12:10.810Z,3.20
2023-06-03T21:14:38.675Z,3.80
2023-06-03T21:17:07.425Z,3.40
2023-06-03T21:19:35.566Z,3.00
2023-06-03T21:22:03.701Z,3.30
2023-06-03T21:24:31.702Z,3.10
2023-06-03T21:27:01.643Z,3.00
2023-06-03T21:29:29.564Z,3.20
2023-06-03T21:31:57.621Z,3.30
2023-06-03T21:34:26.083Z,3.50
2023-06-03T21:36:54.340Z,3.90
2023-06-03T21:39:22.457Z,4.00
2023-06-03T21:41:52.702Z,3.50
2023-06-03T21:44:21.124Z,3.40
2023-06-03T21:46:49.369Z,3.30
2023-06-03T21:49:18.054Z,3.60
2023-06-03T21:51:46.311Z,3.00
2023-06-03T21:54:14.438Z,3.10
2023-06-03T21:56:43.862Z,3.70
2023-06-03T21:59:12.518Z,3.40
2023-06-03T22:01:40.539Z,3.90
2023-06-03T22:04:09.035Z,3.80
2023-06-03T22:06:37.259Z,3.70
2023-06-03T22:09:05.409Z,3.50
2023-06-03T22:11:33.430Z,3.40
2023-06-03T22:14:01.987Z,3.10
2023-06-03T22:16:30.106Z,3.20
2023-06-03T22:18:58.355Z,3.00
2023-06-03T22:21:26.592Z,2.70
2023-06-03T22:23:54.592Z,2.30
2023-06-03T22:26:23.962Z,2.80
2023-06-03T22:28:52.094Z,2.90
2023-06-03T22:31:20.505Z,2.70
2023-06-03T22:33:48.876Z,3.40
2023-06-03T22:36:17.106Z,3.90
2023-06-03T22:38:45.223Z,3.10
2023-06-03T22:41:13.296Z,3.20
2023-06-03T22:43:41.397Z,3.10
2023-06-03T22:46:09.543Z,2.80
2023-06-03T22:48:37.482Z,3.10
2023-06-03T22:51:07.309Z,3.20
2023-06-03T22:53:35.787Z,4.20
2023-06-03T22:56:04.279Z,3.90
2023-06-03T22:58:32.378Z,3.80
2023-06-03T23:01:01.204Z,2.70
2023-06-03T23:03:29.395Z,2.40
2023-06-03T23:05:57.542Z,2.60
2023-06-03T23:08:25.860Z,2.20
2023-06-03T23:10:53.872Z,1.90
2023-06-03T23:13:21.886Z,1.90
2023-06-03T23:15:49.962Z,2.10
2023-06-03T23:18:17.961Z,2.20
2023-06-03T23:20:46.106Z,2.10
2023-06-03T23:23:14.134Z,2.30
2023-06-03T23:25:42.264Z,2.10
2023-06-03T23:28:10.234Z,2.10
2023-06-03T23:30:38.494Z,2.40
2023-06-03T23:33:10.165Z,2.20
2023-06-03T23:35:38.200Z,2.10
2023-06-03T23:38:06.588Z,2.20
2023-06-03T23:40:34.798Z,1.80
2023-06-03T23:43:06.276Z,2.00
2023-06-03T23:45:34.736Z,2.20
2023-06-03T23:48:02.960Z,2.30
2023-06-03T23:50:31.090Z,1.90
2023-06-03T23:52:59.186Z,2.50
2023-06-03T23:55:27.389Z,1.80
2023-06-03T23:57:55.607Z,2.30
